sensor_id;sensor_type;location;lat;lon;timestamp;P1;durP1;ratioP1;P2;durP2;ratioP2
49378;SDS011;35254;47.990;-1.608;2023-07-30T00:01:57;1.85;;;0.80;;
49378;SDS011;35254;47.990;-1.608;2023-07-30T00:04:22;2.00;;;1.10;;
49378;SDS011;35254;47.990;-1.608;2023-07-30T00:06:48;2.33;;;1.17;;
49378;SDS011;35254;47.990;-1.608;2023-07-30T00:09:14;2.05;;;0.82;;
49378;SDS011;35254;47.990;-1.608;2023-07-30T00:11:40;0.57;;;0.55;;
49378;SDS011;35254;47.990;-1.608;2023-07-30T00:14:05;0.82;;;0.73;;
49378;SDS011;35254;47.990;-1.608;2023-07-30T00:16:31;1.45;;;0.68;;
49378;SDS011;35254;47.990;-1.608;2023-07-30T00:18:57;2.95;;;0.98;;
49378;SDS011;35254;47.990;-1.608;2023-07-30T00:21:22;0.70;;;0.70;;
49378;SDS011;35254;47.990;-1.608;2023-07-30T00:23:48;2.33;;;0.70;;
49378;SDS011;35254;47.990;-1.608;2023-07-30T00:26:14;1.95;;;0.88;;
49378;SDS011;35254;47.990;-1.608;2023-07-30T00:28:40;0.70;;;0.70;;
49378;SDS011;35254;47.990;-1.608;2023-07-30T00:31:05;1.52;;;0.85;;
49378;SDS011;35254;47.990;-1.608;2023-07-30T00:33:31;1.38;;;0.80;;
49378;SDS011;35254;47.990;-1.608;2023-07-30T00:35:56;1.38;;;0.68;;
49378;SDS011;35254;47.990;-1.608;2023-07-30T00:38:22;3.80;;;1.05;;
49378;SDS011;35254;47.990;-1.608;2023-07-30T00:40:48;1.05;;;0.88;;
49378;SDS011;35254;47.990;-1.608;2023-07-30T00:43:14;1.60;;;0.65;;
49378;SDS011;35254;47.990;-1.608;2023-07-30T00:45:40;3.30;;;1.15;;
49378;SDS011;35254;47.990;-1.608;2023-07-30T00:48:08;3.65;;;1.08;;
49378;SDS011;35254;47.990;-1.608;2023-07-30T00:50:38;2.40;;;1.08;;
49378;SDS011;35254;47.990;-1.608;2023-07-30T00:53:04;2.35;;;0.73;;
49378;SDS011;35254;47.990;-1.608;2023-07-30T00:55:30;1.10;;;1.00;;
49378;SDS011;35254;47.990;-1.608;2023-07-30T00:57:56;2.28;;;0.70;;
49378;SDS011;35254;47.990;-1.608;2023-07-30T01:00:23;3.75;;;1.10;;
49378;SDS011;35254;47.990;-1.608;2023-07-30T01:02:51;2.40;;;0.80;;
49378;SDS011;35254;47.990;-1.608;2023-07-30T01:05:16;1.88;;;0.93;;
49378;SDS011;35254;47.990;-1.608;2023-07-30T01:07:42;7.57;;;2.00;;
49378;SDS011;35254;47.990;-1.608;2023-07-30T01:10:08;1.25;;;0.90;;
49378;SDS011;35254;47.990;-1.608;2023-07-30T01:12:34;1.27;;;0.80;;
49378;SDS011;35254;47.990;-1.608;2023-07-30T01:15:00;3.10;;;1.00;;
49378;SDS011;35254;47.990;-1.608;2023-07-30T01:17:27;2.08;;;0.93;;
49378;SDS011;35254;47.990;-1.608;2023-07-30T01:19:53;2.03;;;0.82;;
49378;SDS011;35254;47.990;-1.608;2023-07-30T01:22:22;0.63;;;0.63;;
49378;SDS011;35254;47.990;-1.608;2023-07-30T01:24:48;1.42;;;1.10;;
49378;SDS011;35254;47.990;-1.608;2023-07-30T01:27:16;1.65;;;0.95;;
49378;SDS011;35254;47.990;-1.608;2023-07-30T01:29:49;1.17;;;0.65;;
49378;SDS011;35254;47.990;-1.608;2023-07-30T01:32:19;3.60;;;1.40;;
49378;SDS011;35254;47.990;-1.608;2023-07-30T01:34:49;1.38;;;0.60;;
49378;SDS011;35254;47.990;-1.608;2023-07-30T01:37:17;2.33;;;0.93;;
49378;SDS011;35254;47.990;-1.608;2023-07-30T01:39:43;1.77;;;0.90;;
49378;SDS011;35254;47.990;-1.608;2023-07-30T01:42:13;2.20;;;1.08;;
49378;SDS011;35254;47.990;-1.608;2023-07-30T01:44:39;2.40;;;0.85;;
49378;SDS011;35254;47.990;-1.608;2023-07-30T01:47:05;2.25;;;1.20;;
49378;SDS011;35254;47.990;-1.608;2023-07-30T01:49:31;6.93;;;1.40;;
49378;SDS011;35254;47.990;-1.608;2023-07-30T01:51:56;2.58;;;1.10;;
49378;SDS011;35254;47.990;-1.608;2023-07-30T01:54:22;1.70;;;0.90;;
49378;SDS011;35254;47.990;-1.608;2023-07-30T01:56:47;1.17;;;0.80;;
49378;SDS011;35254;47.990;-1.608;2023-07-30T01:59:13;2.38;;;0.90;;
49378;SDS011;35254;47.990;-1.608;2023-07-30T02:01:39;2.92;;;1.10;;
49378;SDS011;35254;47.990;-1.608;2023-07-30T02:04:06;3.42;;;1.00;;
49378;SDS011;35254;47.990;-1.608;2023-07-30T02:06:31;2.25;;;0.98;;
49378;SDS011;35254;47.990;-1.608;2023-07-30T02:08:57;4.25;;;1.23;;
49378;SDS011;35254;47.990;-1.608;2023-07-30T02:11:22;4.75;;;1.20;;
49378;SDS011;35254;47.990;-1.608;2023-07-30T02:13:48;3.55;;;1.08;;
49378;SDS011;35254;47.990;-1.608;2023-07-30T02:16:14;6.35;;;1.08;;
49378;SDS011;35254;47.990;-1.608;2023-07-30T02:18:39;4.47;;;1.25;;
49378;SDS011;35254;47.990;-1.608;2023-07-30T02:21:05;2.50;;;1.00;;
49378;SDS011;35254;47.990;-1.608;2023-07-30T02:23:31;2.47;;;0.70;;
49378;SDS011;35254;47.990;-1.608;2023-07-30T02:25:56;1.83;;;0.80;;
49378;SDS011;35254;47.990;-1.608;2023-07-30T02:28:22;2.13;;;1.00;;
49378;SDS011;35254;47.990;-1.608;2023-07-30T02:30:48;7.00;;;1.35;;
49378;SDS011;35254;47.990;-1.608;2023-07-30T02:33:13;4.68;;;1.30;;
49378;SDS011;35254;47.990;-1.608;2023-07-30T02:35:39;2.65;;;1.23;;
49378;SDS011;35254;47.990;-1.608;2023-07-30T02:38:04;2.45;;;1.00;;
49378;SDS011;35254;47.990;-1.608;2023-07-30T02:40:30;2.72;;;1.42;;
49378;SDS011;35254;47.990;-1.608;2023-07-30T02:42:56;3.88;;;0.88;;
49378;SDS011;35254;47.990;-1.608;2023-07-30T02:45:22;2.05;;;1.10;;
49378;SDS011;35254;47.990;-1.608;2023-07-30T02:47:47;2.65;;;1.15;;
49378;SDS011;35254;47.990;-1.608;2023-07-30T02:50:13;3.30;;;1.17;;
49378;SDS011;35254;47.990;-1.608;2023-07-30T02:52:38;1.80;;;0.80;;
49378;SDS011;35254;47.990;-1.608;2023-07-30T02:55:04;3.80;;;1.73;;
49378;SDS011;35254;47.990;-1.608;2023-07-30T02:57:30;3.00;;;0.90;;
49378;SDS011;35254;47.990;-1.608;2023-07-30T02:59:56;3.42;;;1.00;;
49378;SDS011;35254;47.990;-1.608;2023-07-30T03:02:22;4.65;;;0.90;;
49378;SDS011;35254;47.990;-1.608;2023-07-30T03:04:47;3.90;;;1.15;;
49378;SDS011;35254;47.990;-1.608;2023-07-30T03:07:13;3.30;;;1.02;;
49378;SDS011;35254;47.990;-1.608;2023-07-30T03:09:39;2.50;;;1.17;;
49378;SDS011;35254;47.990;-1.608;2023-07-30T03:12:04;2.13;;;1.20;;
49378;SDS011;35254;47.990;-1.608;2023-07-30T03:14:30;2.67;;;1.30;;
49378;SDS011;35254;47.990;-1.608;2023-07-30T03:16:56;3.58;;;1.08;;
49378;SDS011;35254;47.990;-1.608;2023-07-30T03:19:21;2.45;;;1.02;;
49378;SDS011;35254;47.990;-1.608;2023-07-30T03:21:47;3.58;;;1.30;;
49378;SDS011;35254;47.990;-1.608;2023-07-30T03:24:13;2.22;;;1.05;;
49378;SDS011;35254;47.990;-1.608;2023-07-30T03:26:38;2.33;;;1.10;;
49378;SDS011;35254;47.990;-1.608;2023-07-30T03:29:04;3.10;;;1.25;;
49378;SDS011;35254;47.990;-1.608;2023-07-30T03:31:29;1.77;;;1.52;;
49378;SDS011;35254;47.990;-1.608;2023-07-30T03:33:55;1.80;;;1.13;;
49378;SDS011;35254;47.990;-1.608;2023-07-30T03:36:20;3.15;;;1.45;;
49378;SDS011;35254;47.990;-1.608;2023-07-30T03:38:46;4.47;;;1.38;;
49378;SDS011;35254;47.990;-1.608;2023-07-30T03:41:12;1.38;;;1.05;;
49378;SDS011;35254;47.990;-1.608;2023-07-30T03:43:37;3.35;;;1.20;;
49378;SDS011;35254;47.990;-1.608;2023-07-30T03:46:03;6.00;;;1.60;;
49378;SDS011;35254;47.990;-1.608;2023-07-30T03:48:29;2.70;;;1.27;;
49378;SDS011;35254;47.990;-1.608;2023-07-30T03:50:54;4.53;;;1.20;;
49378;SDS011;35254;47.990;-1.608;2023-07-30T03:53:21;3.25;;;1.10;;
49378;SDS011;35254;47.990;-1.608;2023-07-30T03:55:47;4.30;;;1.17;;
49378;SDS011;35254;47.990;-1.608;2023-07-30T03:58:12;3.05;;;1.85;;
49378;SDS011;35254;47.990;-1.608;2023-07-30T04:00:38;3.88;;;1.10;;
49378;SDS011;35254;47.990;-1.608;2023-07-30T04:03:04;1.25;;;0.95;;
49378;SDS011;35254;47.990;-1.608;2023-07-30T04:05:30;4.50;;;1.50;;
49378;SDS011;35254;47.990;-1.608;2023-07-30T04:07:55;3.97;;;1.10;;
49378;SDS011;35254;47.990;-1.608;2023-07-30T04:10:21;3.60;;;1.20;;
49378;SDS011;35254;47.990;-1.608;2023-07-30T04:12:47;1.80;;;1.00;;
49378;SDS011;35254;47.990;-1.608;2023-07-30T04:15:14;3.42;;;1.05;;
49378;SDS011;35254;47.990;-1.608;2023-07-30T04:17:40;2.55;;;1.20;;
49378;SDS011;35254;47.990;-1.608;2023-07-30T04:20:06;2.22;;;1.02;;
49378;SDS011;35254;47.990;-1.608;2023-07-30T04:22:32;3.58;;;1.35;;
49378;SDS011;35254;47.990;-1.608;2023-07-30T04:24:57;4.03;;;1.00;;
49378;SDS011;35254;47.990;-1.608;2023-07-30T04:27:23;2.35;;;1.13;;
49378;SDS011;35254;47.990;-1.608;2023-07-30T04:29:49;2.47;;;1.20;;
49378;SDS011;35254;47.990;-1.608;2023-07-30T04:32:14;2.65;;;1.10;;
49378;SDS011;35254;47.990;-1.608;2023-07-30T04:34:40;2.78;;;1.02;;
49378;SDS011;35254;47.990;-1.608;2023-07-30T04:37:05;2.78;;;1.42;;
49378;SDS011;35254;47.990;-1.608;2023-07-30T04:39:34;3.80;;;1.30;;
49378;SDS011;35254;47.990;-1.608;2023-07-30T04:42:01;4.35;;;1.23;;
49378;SDS011;35254;47.990;-1.608;2023-07-30T04:44:27;2.40;;;1.55;;
49378;SDS011;35254;47.990;-1.608;2023-07-30T04:46:52;2.00;;;1.30;;
49378;SDS011;35254;47.990;-1.608;2023-07-30T04:49:18;2.38;;;1.98;;
49378;SDS011;35254;47.990;-1.608;2023-07-30T04:51:43;4.85;;;1.60;;
49378;SDS011;35254;47.990;-1.608;2023-07-30T04:54:09;1.85;;;0.90;;
49378;SDS011;35254;47.990;-1.608;2023-07-30T04:56:35;5.50;;;1.63;;
49378;SDS011;35254;47.990;-1.608;2023-07-30T04:59:02;3.80;;;1.13;;
49378;SDS011;35254;47.990;-1.608;2023-07-30T05:01:28;3.75;;;1.40;;
49378;SDS011;35254;47.990;-1.608;2023-07-30T05:03:54;2.92;;;1.30;;
49378;SDS011;35254;47.990;-1.608;2023-07-30T05:06:19;2.70;;;1.08;;
49378;SDS011;35254;47.990;-1.608;2023-07-30T05:08:45;3.28;;;1.45;;
49378;SDS011;35254;47.990;-1.608;2023-07-30T05:11:11;3.00;;;1.92;;
49378;SDS011;35254;47.990;-1.608;2023-07-30T05:13:36;2.92;;;1.38;;
49378;SDS011;35254;47.990;-1.608;2023-07-30T05:16:02;4.18;;;1.52;;
49378;SDS011;35254;47.990;-1.608;2023-07-30T05:18:28;2.90;;;1.27;;
49378;SDS011;35254;47.990;-1.608;2023-07-30T05:20:54;2.35;;;1.52;;
49378;SDS011;35254;47.990;-1.608;2023-07-30T05:23:20;4.00;;;1.50;;
49378;SDS011;35254;47.990;-1.608;2023-07-30T05:25:46;2.08;;;1.10;;
49378;SDS011;35254;47.990;-1.608;2023-07-30T05:28:12;5.78;;;1.30;;
49378;SDS011;35254;47.990;-1.608;2023-07-30T05:30:37;3.70;;;1.17;;
49378;SDS011;35254;47.990;-1.608;2023-07-30T05:33:03;3.03;;;1.75;;
49378;SDS011;35254;47.990;-1.608;2023-07-30T05:35:29;2.35;;;1.00;;
49378;SDS011;35254;47.990;-1.608;2023-07-30T05:37:55;3.95;;;1.58;;
49378;SDS011;35254;47.990;-1.608;2023-07-30T05:40:20;3.30;;;1.88;;
49378;SDS011;35254;47.990;-1.608;2023-07-30T05:42:46;3.88;;;1.40;;
49378;SDS011;35254;47.990;-1.608;2023-07-30T05:45:12;1.85;;;1.50;;
49378;SDS011;35254;47.990;-1.608;2023-07-30T05:47:38;3.00;;;0.95;;
49378;SDS011;35254;47.990;-1.608;2023-07-30T05:50:04;2.78;;;1.45;;
49378;SDS011;35254;47.990;-1.608;2023-07-30T05:52:30;1.38;;;0.90;;
49378;SDS011;35254;47.990;-1.608;2023-07-30T05:54:55;2.75;;;1.17;;
49378;SDS011;35254;47.990;-1.608;2023-07-30T05:57:21;2.80;;;1.33;;
49378;SDS011;35254;47.990;-1.608;2023-07-30T05:59:47;2.92;;;1.15;;
49378;SDS011;35254;47.990;-1.608;2023-07-30T06:02:12;3.38;;;1.38;;
49378;SDS011;35254;47.990;-1.608;2023-07-30T06:04:38;4.18;;;1.88;;
49378;SDS011;35254;47.990;-1.608;2023-07-30T06:07:04;4.35;;;1.40;;
49378;SDS011;35254;47.990;-1.608;2023-07-30T06:09:29;3.67;;;1.23;;
49378;SDS011;35254;47.990;-1.608;2023-07-30T06:11:58;2.53;;;0.90;;
49378;SDS011;35254;47.990;-1.608;2023-07-30T06:14:24;2.80;;;1.25;;
49378;SDS011;35254;47.990;-1.608;2023-07-30T06:16:50;4.20;;;1.70;;
49378;SDS011;35254;47.990;-1.608;2023-07-30T06:19:16;1.27;;;1.10;;
49378;SDS011;35254;47.990;-1.608;2023-07-30T06:21:42;2.38;;;1.42;;
49378;SDS011;35254;47.990;-1.608;2023-07-30T06:24:08;2.75;;;1.30;;
49378;SDS011;35254;47.990;-1.608;2023-07-30T06:26:33;3.88;;;1.52;;
49378;SDS011;35254;47.990;-1.608;2023-07-30T06:28:59;3.05;;;1.38;;
49378;SDS011;35254;47.990;-1.608;2023-07-30T06:31:24;2.53;;;1.40;;
49378;SDS011;35254;47.990;-1.608;2023-07-30T06:33:50;3.33;;;1.50;;
49378;SDS011;35254;47.990;-1.608;2023-07-30T06:36:15;1.70;;;1.30;;
49378;SDS011;35254;47.990;-1.608;2023-07-30T06:38:41;6.18;;;1.75;;
49378;SDS011;35254;47.990;-1.608;2023-07-30T06:41:07;3.03;;;1.30;;
49378;SDS011;35254;47.990;-1.608;2023-07-30T06:43:32;2.22;;;1.23;;
49378;SDS011;35254;47.990;-1.608;2023-07-30T06:45:58;5.28;;;1.85;;
49378;SDS011;35254;47.990;-1.608;2023-07-30T06:48:24;3.75;;;1.20;;
49378;SDS011;35254;47.990;-1.608;2023-07-30T06:50:49;4.30;;;2.00;;
49378;SDS011;35254;47.990;-1.608;2023-07-30T06:53:15;3.35;;;1.50;;
49378;SDS011;35254;47.990;-1.608;2023-07-30T06:55:41;12.40;;;1.58;;
49378;SDS011;35254;47.990;-1.608;2023-07-30T06:58:06;6.50;;;1.75;;
49378;SDS011;35254;47.990;-1.608;2023-07-30T07:00:32;4.22;;;2.33;;
49378;SDS011;35254;47.990;-1.608;2023-07-30T07:02:57;6.07;;;2.00;;
49378;SDS011;35254;47.990;-1.608;2023-07-30T07:05:23;4.53;;;1.48;;
49378;SDS011;35254;47.990;-1.608;2023-07-30T07:07:49;5.60;;;2.22;;
49378;SDS011;35254;47.990;-1.608;2023-07-30T07:10:15;3.75;;;1.48;;
49378;SDS011;35254;47.990;-1.608;2023-07-30T07:12:40;1.30;;;1.10;;
49378;SDS011;35254;47.990;-1.608;2023-07-30T07:15:06;3.85;;;1.63;;
49378;SDS011;35254;47.990;-1.608;2023-07-30T07:17:32;2.95;;;1.77;;
49378;SDS011;35254;47.990;-1.608;2023-07-30T07:19:58;4.90;;;1.30;;
49378;SDS011;35254;47.990;-1.608;2023-07-30T07:22:23;3.83;;;1.40;;
49378;SDS011;35254;47.990;-1.608;2023-07-30T07:24:49;9.30;;;3.67;;
49378;SDS011;35254;47.990;-1.608;2023-07-30T07:27:17;3.95;;;1.80;;
49378;SDS011;35254;47.990;-1.608;2023-07-30T07:29:43;6.68;;;1.95;;
49378;SDS011;35254;47.990;-1.608;2023-07-30T07:32:09;5.22;;;2.10;;
49378;SDS011;35254;47.990;-1.608;2023-07-30T07:34:34;3.58;;;1.42;;
49378;SDS011;35254;47.990;-1.608;2023-07-30T07:37:01;2.95;;;1.42;;
49378;SDS011;35254;47.990;-1.608;2023-07-30T07:39:26;2.40;;;1.73;;
49378;SDS011;35254;47.990;-1.608;2023-07-30T07:41:52;5.78;;;2.10;;
49378;SDS011;35254;47.990;-1.608;2023-07-30T07:44:18;10.82;;;2.03;;
49378;SDS011;35254;47.990;-1.608;2023-07-30T07:46:43;2.67;;;1.98;;
49378;SDS011;35254;47.990;-1.608;2023-07-30T07:49:09;10.80;;;2.03;;
49378;SDS011;35254;47.990;-1.608;2023-07-30T07:51:34;4.03;;;1.77;;
49378;SDS011;35254;47.990;-1.608;2023-07-30T07:54:00;3.30;;;1.85;;
49378;SDS011;35254;47.990;-1.608;2023-07-30T07:56:26;6.43;;;1.98;;
49378;SDS011;35254;47.990;-1.608;2023-07-30T07:58:51;7.47;;;2.28;;
49378;SDS011;35254;47.990;-1.608;2023-07-30T08:01:17;4.43;;;1.75;;
49378;SDS011;35254;47.990;-1.608;2023-07-30T08:03:43;3.85;;;1.70;;
49378;SDS011;35254;47.990;-1.608;2023-07-30T08:06:09;7.25;;;2.42;;
49378;SDS011;35254;47.990;-1.608;2023-07-30T08:08:35;5.32;;;1.73;;
49378;SDS011;35254;47.990;-1.608;2023-07-30T08:11:07;4.85;;;2.08;;
49378;SDS011;35254;47.990;-1.608;2023-07-30T08:13:34;5.63;;;2.00;;
49378;SDS011;35254;47.990;-1.608;2023-07-30T08:16:01;7.25;;;2.22;;
49378;SDS011;35254;47.990;-1.608;2023-07-30T08:18:27;4.07;;;3.20;;
49378;SDS011;35254;47.990;-1.608;2023-07-30T08:20:53;3.72;;;1.65;;
49378;SDS011;35254;47.990;-1.608;2023-07-30T08:23:19;4.60;;;1.95;;
49378;SDS011;35254;47.990;-1.608;2023-07-30T08:25:44;3.33;;;1.75;;
49378;SDS011;35254;47.990;-1.608;2023-07-30T08:28:10;9.05;;;2.33;;
49378;SDS011;35254;47.990;-1.608;2023-07-30T08:30:36;5.70;;;2.13;;
49378;SDS011;35254;47.990;-1.608;2023-07-30T08:33:01;4.20;;;1.83;;
49378;SDS011;35254;47.990;-1.608;2023-07-30T08:35:27;4.55;;;2.30;;
49378;SDS011;35254;47.990;-1.608;2023-07-30T08:37:53;5.82;;;2.08;;
49378;SDS011;35254;47.990;-1.608;2023-07-30T08:40:21;2.45;;;1.98;;
49378;SDS011;35254;47.990;-1.608;2023-07-30T08:42:48;4.85;;;1.88;;
49378;SDS011;35254;47.990;-1.608;2023-07-30T08:45:17;7.38;;;2.40;;
49378;SDS011;35254;47.990;-1.608;2023-07-30T08:47:44;5.63;;;2.42;;
49378;SDS011;35254;47.990;-1.608;2023-07-30T08:50:10;6.20;;;2.33;;
49378;SDS011;35254;47.990;-1.608;2023-07-30T08:52:36;8.50;;;3.03;;
49378;SDS011;35254;47.990;-1.608;2023-07-30T08:55:02;6.45;;;2.20;;
49378;SDS011;35254;47.990;-1.608;2023-07-30T08:57:29;3.65;;;2.25;;
49378;SDS011;35254;47.990;-1.608;2023-07-30T08:59:59;5.13;;;2.05;;
49378;SDS011;35254;47.990;-1.608;2023-07-30T09:05:04;5.30;;;2.17;;
49378;SDS011;35254;47.990;-1.608;2023-07-30T09:07:30;3.42;;;2.15;;
49378;SDS011;35254;47.990;-1.608;2023-07-30T09:09:56;7.38;;;2.65;;
49378;SDS011;35254;47.990;-1.608;2023-07-30T09:12:34;5.03;;;2.55;;
49378;SDS011;35254;47.990;-1.608;2023-07-30T09:15:06;5.05;;;2.40;;
49378;SDS011;35254;47.990;-1.608;2023-07-30T09:17:33;4.85;;;2.40;;
49378;SDS011;35254;47.990;-1.608;2023-07-30T09:20:05;5.00;;;2.40;;
49378;SDS011;35254;47.990;-1.608;2023-07-30T09:22:32;6.68;;;2.53;;
49378;SDS011;35254;47.990;-1.608;2023-07-30T09:25:01;5.72;;;2.42;;
49378;SDS011;35254;47.990;-1.608;2023-07-30T09:27:28;8.18;;;2.60;;
49378;SDS011;35254;47.990;-1.608;2023-07-30T09:29:57;5.75;;;2.53;;
49378;SDS011;35254;47.990;-1.608;2023-07-30T09:32:27;6.18;;;2.40;;
49378;SDS011;35254;47.990;-1.608;2023-07-30T09:35:03;6.18;;;3.20;;
49378;SDS011;35254;47.990;-1.608;2023-07-30T09:37:37;6.38;;;2.70;;
49378;SDS011;35254;47.990;-1.608;2023-07-30T09:40:04;7.90;;;2.30;;
49378;SDS011;35254;47.990;-1.608;2023-07-30T09:42:31;9.75;;;2.90;;
49378;SDS011;35254;47.990;-1.608;2023-07-30T09:45:00;7.10;;;2.60;;
49378;SDS011;35254;47.990;-1.608;2023-07-30T09:47:26;4.13;;;2.70;;
49378;SDS011;35254;47.990;-1.608;2023-07-30T09:49:52;4.45;;;2.47;;
49378;SDS011;35254;47.990;-1.608;2023-07-30T09:52:18;6.88;;;3.90;;
49378;SDS011;35254;47.990;-1.608;2023-07-30T09:54:45;8.63;;;3.38;;
49378;SDS011;35254;47.990;-1.608;2023-07-30T09:57:11;4.18;;;2.53;;
49378;SDS011;35254;47.990;-1.608;2023-07-30T09:59:37;3.78;;;2.85;;
49378;SDS011;35254;47.990;-1.608;2023-07-30T10:02:03;7.63;;;3.15;;
49378;SDS011;35254;47.990;-1.608;2023-07-30T10:04:30;8.82;;;3.47;;
49378;SDS011;35254;47.990;-1.608;2023-07-30T10:06:58;4.82;;;2.58;;
49378;SDS011;35254;47.990;-1.608;2023-07-30T10:09:33;7.50;;;2.60;;
49378;SDS011;35254;47.990;-1.608;2023-07-30T10:12:03;5.55;;;2.80;;
49378;SDS011;35254;47.990;-1.608;2023-07-30T10:14:30;5.95;;;3.00;;
49378;SDS011;35254;47.990;-1.608;2023-07-30T10:16:59;4.53;;;2.92;;
49378;SDS011;35254;47.990;-1.608;2023-07-30T10:19:26;6.03;;;2.90;;
49378;SDS011;35254;47.990;-1.608;2023-07-30T10:22:38;4.95;;;2.63;;
49378;SDS011;35254;47.990;-1.608;2023-07-30T10:24:39;5.88;;;2.65;;
49378;SDS011;35254;47.990;-1.608;2023-07-30T10:27:05;5.88;;;3.47;;
49378;SDS011;35254;47.990;-1.608;2023-07-30T10:29:38;6.68;;;3.42;;
49378;SDS011;35254;47.990;-1.608;2023-07-30T10:32:06;6.82;;;3.10;;
49378;SDS011;35254;47.990;-1.608;2023-07-30T10:35:06;4.57;;;3.05;;
49378;SDS011;35254;47.990;-1.608;2023-07-30T10:37:24;16.30;;;3.83;;
49378;SDS011;35254;47.990;-1.608;2023-07-30T10:39:51;5.03;;;2.97;;
49378;SDS011;35254;47.990;-1.608;2023-07-30T10:42:16;6.47;;;3.03;;
49378;SDS011;35254;47.990;-1.608;2023-07-30T10:44:44;7.18;;;3.75;;
49378;SDS011;35254;47.990;-1.608;2023-07-30T10:47:10;4.63;;;3.05;;
49378;SDS011;35254;47.990;-1.608;2023-07-30T10:49:36;4.85;;;2.75;;
49378;SDS011;35254;47.990;-1.608;2023-07-30T10:52:03;5.88;;;3.00;;
49378;SDS011;35254;47.990;-1.608;2023-07-30T10:54:35;5.20;;;3.05;;
49378;SDS011;35254;47.990;-1.608;2023-07-30T10:57:05;6.25;;;3.92;;
49378;SDS011;35254;47.990;-1.608;2023-07-30T10:59:34;6.93;;;3.13;;
49378;SDS011;35254;47.990;-1.608;2023-07-30T11:02:01;6.22;;;3.60;;
49378;SDS011;35254;47.990;-1.608;2023-07-30T11:04:27;5.05;;;3.13;;
49378;SDS011;35254;47.990;-1.608;2023-07-30T11:06:53;5.85;;;3.40;;
49378;SDS011;35254;47.990;-1.608;2023-07-30T11:11:51;7.70;;;3.85;;
49378;SDS011;35254;47.990;-1.608;2023-07-30T11:14:18;4.55;;;3.05;;
49378;SDS011;35254;47.990;-1.608;2023-07-30T11:16:52;7.32;;;3.20;;
49378;SDS011;35254;47.990;-1.608;2023-07-30T11:19:19;6.03;;;3.60;;
49378;SDS011;35254;47.990;-1.608;2023-07-30T11:21:46;5.72;;;2.90;;
49378;SDS011;35254;47.990;-1.608;2023-07-30T11:24:12;9.10;;;4.28;;
49378;SDS011;35254;47.990;-1.608;2023-07-30T11:26:38;6.55;;;3.42;;
49378;SDS011;35254;47.990;-1.608;2023-07-30T11:29:16;5.78;;;2.83;;
49378;SDS011;35254;47.990;-1.608;2023-07-30T11:31:43;5.95;;;3.60;;
49378;SDS011;35254;47.990;-1.608;2023-07-30T11:34:10;6.20;;;3.22;;
49378;SDS011;35254;47.990;-1.608;2023-07-30T11:36:36;3.85;;;2.85;;
49378;SDS011;35254;47.990;-1.608;2023-07-30T11:39:03;6.90;;;3.67;;
49378;SDS011;35254;47.990;-1.608;2023-07-30T11:41:28;8.15;;;3.88;;
49378;SDS011;35254;47.990;-1.608;2023-07-30T11:43:54;4.43;;;3.10;;
49378;SDS011;35254;47.990;-1.608;2023-07-30T11:46:20;5.38;;;3.08;;
49378;SDS011;35254;47.990;-1.608;2023-07-30T11:48:48;6.28;;;3.53;;
49378;SDS011;35254;47.990;-1.608;2023-07-30T11:51:21;4.18;;;3.15;;
49378;SDS011;35254;47.990;-1.608;2023-07-30T11:58:47;6.03;;;2.85;;
49378;SDS011;35254;47.990;-1.608;2023-07-30T12:01:17;5.63;;;3.20;;
49378;SDS011;35254;47.990;-1.608;2023-07-30T12:03:43;7.88;;;3.95;;
49378;SDS011;35254;47.990;-1.608;2023-07-30T12:06:09;4.43;;;2.67;;
49378;SDS011;35254;47.990;-1.608;2023-07-30T12:08:36;7.40;;;3.22;;
49378;SDS011;35254;47.990;-1.608;2023-07-30T12:11:02;5.70;;;3.42;;
49378;SDS011;35254;47.990;-1.608;2023-07-30T12:13:33;4.75;;;3.15;;
49378;SDS011;35254;47.990;-1.608;2023-07-30T12:15:59;7.55;;;3.75;;
49378;SDS011;35254;47.990;-1.608;2023-07-30T12:18:25;7.15;;;3.22;;
49378;SDS011;35254;47.990;-1.608;2023-07-30T12:20:52;7.43;;;3.42;;
49378;SDS011;35254;47.990;-1.608;2023-07-30T12:23:19;4.22;;;3.53;;
49378;SDS011;35254;47.990;-1.608;2023-07-30T12:25:45;4.25;;;3.42;;
49378;SDS011;35254;47.990;-1.608;2023-07-30T12:28:11;4.47;;;2.72;;
49378;SDS011;35254;47.990;-1.608;2023-07-30T12:30:37;6.28;;;3.83;;
49378;SDS011;35254;47.990;-1.608;2023-07-30T12:33:05;6.00;;;3.28;;
49378;SDS011;35254;47.990;-1.608;2023-07-30T12:35:31;6.20;;;3.88;;
49378;SDS011;35254;47.990;-1.608;2023-07-30T12:37:58;5.07;;;2.80;;
49378;SDS011;35254;47.990;-1.608;2023-07-30T12:40:24;6.07;;;3.63;;
49378;SDS011;35254;47.990;-1.608;2023-07-30T12:42:50;4.10;;;2.97;;
49378;SDS011;35254;47.990;-1.608;2023-07-30T12:45:15;6.72;;;2.85;;
49378;SDS011;35254;47.990;-1.608;2023-07-30T12:47:41;6.35;;;3.05;;
49378;SDS011;35254;47.990;-1.608;2023-07-30T12:50:07;3.60;;;2.95;;
49378;SDS011;35254;47.990;-1.608;2023-07-30T12:52:33;5.40;;;3.35;;
49378;SDS011;35254;47.990;-1.608;2023-07-30T12:55:00;6.68;;;3.08;;
49378;SDS011;35254;47.990;-1.608;2023-07-30T12:57:26;5.47;;;2.65;;
49378;SDS011;35254;47.990;-1.608;2023-07-30T12:59:52;6.80;;;3.75;;
49378;SDS011;35254;47.990;-1.608;2023-07-30T13:02:18;6.03;;;3.13;;
49378;SDS011;35254;47.990;-1.608;2023-07-30T13:04:43;4.50;;;2.65;;
49378;SDS011;35254;47.990;-1.608;2023-07-30T13:07:09;5.60;;;2.75;;
49378;SDS011;35254;47.990;-1.608;2023-07-30T13:09:35;4.22;;;3.13;;
49378;SDS011;35254;47.990;-1.608;2023-07-30T13:12:00;5.47;;;3.20;;
49378;SDS011;35254;47.990;-1.608;2023-07-30T13:14:26;7.05;;;3.95;;
49378;SDS011;35254;47.990;-1.608;2023-07-30T13:16:52;5.45;;;2.88;;
49378;SDS011;35254;47.990;-1.608;2023-07-30T13:19:17;6.55;;;3.42;;
49378;SDS011;35254;47.990;-1.608;2023-07-30T13:21:43;4.50;;;3.13;;
49378;SDS011;35254;47.990;-1.608;2023-07-30T13:24:08;4.32;;;2.90;;
49378;SDS011;35254;47.990;-1.608;2023-07-30T13:26:35;5.60;;;3.35;;
49378;SDS011;35254;47.990;-1.608;2023-07-30T13:29:00;4.90;;;2.78;;
49378;SDS011;35254;47.990;-1.608;2023-07-30T13:31:26;6.07;;;3.40;;
49378;SDS011;35254;47.990;-1.608;2023-07-30T13:33:52;4.90;;;3.15;;
49378;SDS011;35254;47.990;-1.608;2023-07-30T13:36:17;6.47;;;3.25;;
49378;SDS011;35254;47.990;-1.608;2023-07-30T13:38:43;6.43;;;3.40;;
49378;SDS011;35254;47.990;-1.608;2023-07-30T13:41:09;5.32;;;3.13;;
49378;SDS011;35254;47.990;-1.608;2023-07-30T13:43:35;5.75;;;3.50;;
49378;SDS011;35254;47.990;-1.608;2023-07-30T13:46:01;7.65;;;3.58;;
49378;SDS011;35254;47.990;-1.608;2023-07-30T13:48:26;6.13;;;3.13;;
49378;SDS011;35254;47.990;-1.608;2023-07-30T13:50:52;5.82;;;2.55;;
49378;SDS011;35254;47.990;-1.608;2023-07-30T13:53:18;5.30;;;3.42;;
49378;SDS011;35254;47.990;-1.608;2023-07-30T13:55:44;5.00;;;3.17;;
49378;SDS011;35254;47.990;-1.608;2023-07-30T13:58:10;5.00;;;2.45;;
49378;SDS011;35254;47.990;-1.608;2023-07-30T14:00:36;5.70;;;3.47;;
49378;SDS011;35254;47.990;-1.608;2023-07-30T14:03:02;4.22;;;3.03;;
49378;SDS011;35254;47.990;-1.608;2023-07-30T14:05:28;5.20;;;2.95;;
49378;SDS011;35254;47.990;-1.608;2023-07-30T14:07:54;9.02;;;2.88;;
49378;SDS011;35254;47.990;-1.608;2023-07-30T14:10:22;6.13;;;3.08;;
49378;SDS011;35254;47.990;-1.608;2023-07-30T14:12:52;4.82;;;3.20;;
49378;SDS011;35254;47.990;-1.608;2023-07-30T14:15:17;7.10;;;3.40;;
49378;SDS011;35254;47.990;-1.608;2023-07-30T14:17:43;4.97;;;3.28;;
49378;SDS011;35254;47.990;-1.608;2023-07-30T14:20:09;4.32;;;3.28;;
49378;SDS011;35254;47.990;-1.608;2023-07-30T14:22:35;4.53;;;3.30;;
49378;SDS011;35254;47.990;-1.608;2023-07-30T14:25:01;5.97;;;3.03;;
49378;SDS011;35254;47.990;-1.608;2023-07-30T14:27:27;7.43;;;3.08;;
49378;SDS011;35254;47.990;-1.608;2023-07-30T14:29:53;4.40;;;2.67;;
49378;SDS011;35254;47.990;-1.608;2023-07-30T14:32:22;6.43;;;3.80;;
49378;SDS011;35254;47.990;-1.608;2023-07-30T14:34:48;6.95;;;3.95;;
49378;SDS011;35254;47.990;-1.608;2023-07-30T14:37:14;7.30;;;2.80;;
49378;SDS011;35254;47.990;-1.608;2023-07-30T14:39:40;6.47;;;2.92;;